Time;durP1;ratioP1;P1;durP2;ratioP2;P2;SDS_P1;SDS_P2;PMS_P1;PMS_P2;Temp;Humidity;BMP_temperature;BMP_pressure;BME280_temperature;BME280_humidity;BME280_pressure;Samples;Min_cycle;Max_cycle;Signal;HPM_P1;HPM_P2
2022/03/19 00:01:29;;;;;;;0.30;0.30;;;17.20;60.90;;;;;;5002777;28;20125;-12
2022/03/19 00:03:54;;;;;;;0.30;0.30;;;17.20;60.90;;;;;;4998869;28;20166;-12
2022/03/19 00:06:20;;;;;;;0.82;0.63;;;17.20;60.90;;;;;;4992328;28;20061;-12
2022/03/19 00:08:46;;;;;;;0.22;0.22;;;17.30;60.90;;;;;;4999222;28;20507;-12
2022/03/19 00:11:11;;;;;;;0.85;0.30;;;17.20;60.90;;;;;;4991868;28;20050;-13
2022/03/19 00:13:37;;;;;;;0.43;0.30;;;17.20;60.90;;;;;;5001498;28;20038;-13
2022/03/19 00:16:03;;;;;;;0.93;0.30;;;17.20;60.90;;;;;;5000885;28;20418;-14
2022/03/19 00:18:29;;;;;;;0.20;0.13;;;17.20;60.90;;;;;;4997523;28;20130;-16
2022/03/19 00:20:54;;;;;;;0.40;0.40;;;17.20;60.90;;;;;;4993017;28;20137;-13
2022/03/19 00:23:20;;;;;;;0.17;0.17;;;17.20;60.80;;;;;;4989856;28;20054;-13
2022/03/19 00:25:46;;;;;;;0.22;0.22;;;17.30;60.90;;;;;;4989577;28;20046;-13
2022/03/19 00:28:12;;;;;;;0.30;0.20;;;17.20;60.80;;;;;;4990039;28;20041;-12
2022/03/19 00:30:38;;;;;;;1.52;0.77;;;17.20;60.80;;;;;;4991728;28;20149;-14
2022/03/19 00:33:03;;;;;;;0.20;0.20;;;17.20;60.90;;;;;;4992149;28;20150;-12
2022/03/19 00:35:29;;;;;;;1.13;0.30;;;17.20;60.90;;;;;;4992192;28;20647;-13
2022/03/19 00:37:55;;;;;;;0.45;0.30;;;17.20;60.90;;;;;;4989866;28;20035;-12
2022/03/19 00:40:22;;;;;;;0.40;0.40;;;17.10;60.90;;;;;;4980965;28;20551;-12
2022/03/19 00:42:48;;;;;;;0.35;0.30;;;17.20;61.00;;;;;;5007113;28;20034;-13
2022/03/19 00:45:13;;;;;;;0.20;0.20;;;17.20;61.00;;;;;;5006329;28;20057;-12
2022/03/19 00:47:39;;;;;;;0.30;0.30;;;17.20;61.10;;;;;;5008253;28;20038;-12
2022/03/19 00:50:05;;;;;;;0.25;0.20;;;17.20;61.00;;;;;;4991704;28;20174;-13
2022/03/19 00:52:31;;;;;;;0.30;0.30;;;17.20;61.00;;;;;;4991578;28;20085;-12
2022/03/19 00:54:57;;;;;;;0.30;0.30;;;17.20;60.90;;;;;;5000902;28;20046;-13
2022/03/19 00:57:22;;;;;;;0.20;0.20;;;17.20;60.90;;;;;;4987395;28;20053;-13
2022/03/19 00:59:48;;;;;;;0.30;0.30;;;17.20;60.90;;;;;;4991454;28;20050;-13
2022/03/19 01:02:14;;;;;;;0.50;0.40;;;17.20;60.80;;;;;;4997559;28;20510;-13
2022/03/19 01:04:39;;;;;;;0.40;0.40;;;17.20;60.90;;;;;;5005353;28;20402;-12
2022/03/19 01:07:05;;;;;;;0.22;0.22;;;17.20;60.80;;;;;;4999961;28;20049;-13
2022/03/19 01:09:30;;;;;;;0.20;0.20;;;17.20;60.80;;;;;;5009586;28;20584;-13
2022/03/19 01:11:56;;;;;;;0.50;0.50;;;17.20;60.70;;;;;;4999126;28;20193;-13
2022/03/19 01:14:22;;;;;;;0.40;0.40;;;17.20;60.70;;;;;;5003189;28;20057;-12
2022/03/19 01:16:47;;;;;;;0.40;0.40;;;17.20;60.80;;;;;;5007980;28;20103;-13
2022/03/19 01:19:13;;;;;;;0.30;0.30;;;17.20;60.80;;;;;;4995131;28;20112;-13
2022/03/19 01:21:39;;;;;;;1.40;0.38;;;17.20;60.70;;;;;;4994798;28;20054;-14
2022/03/19 01:24:05;;;;;;;0.20;0.20;;;17.20;60.60;;;;;;5002605;28;20151;-12
2022/03/19 01:26:31;;;;;;;0.30;0.30;;;17.10;60.70;;;;;;4996020;28;20047;-14
2022/03/19 01:28:57;;;;;;;0.50;0.40;;;17.20;60.60;;;;;;4994543;28;20541;-13
2022/03/19 01:31:26;;;;;;;0.30;0.30;;;17.20;60.70;;;;;;4994906;28;20266;-12
2022/03/19 01:33:52;;;;;;;0.30;0.30;;;17.10;60.50;;;;;;5000310;28;20515;-13
2022/03/19 01:36:18;;;;;;;0.30;0.30;;;17.10;60.50;;;;;;4997522;28;20581;-13
2022/03/19 01:38:43;;;;;;;0.63;0.30;;;17.10;60.70;;;;;;5004356;28;20516;-12
2022/03/19 01:41:09;;;;;;;0.30;0.30;;;17.10;60.70;;;;;;4997754;28;20465;-14
2022/03/19 01:43:38;;;;;;;0.22;0.22;;;17.10;60.60;;;;;;4995303;28;20050;-12
2022/03/19 01:46:04;;;;;;;0.40;0.40;;;17.10;60.60;;;;;;4991645;28;20062;-14
2022/03/19 01:48:30;;;;;;;0.30;0.30;;;17.10;60.60;;;;;;5001769;28;20496;-13
2022/03/19 01:50:55;;;;;;;0.30;0.20;;;17.10;60.60;;;;;;4997712;28;20495;-13
2022/03/19 01:53:21;;;;;;;0.30;0.30;;;17.10;60.70;;;;;;5009493;28;20820;-13
2022/03/19 01:55:46;;;;;;;0.20;0.20;;;17.10;60.60;;;;;;5010093;28;20157;-13
2022/03/19 01:58:12;;;;;;;0.35;0.35;;;17.10;60.60;;;;;;4994911;28;20046;-12
2022/03/19 02:00:38;;;;;;;1.88;0.38;;;17.20;60.60;;;;;;4995884;28;20038;-13
2022/03/19 02:03:03;;;;;;;0.40;0.40;;;17.10;60.60;;;;;;4998088;28;20496;-13
2022/03/19 02:05:29;;;;;;;0.40;0.20;;;17.10;60.60;;;;;;4993039;28;20411;-13
2022/03/19 02:07:55;;;;;;;3.78;0.20;;;17.10;60.30;;;;;;4992736;28;20131;-14
2022/03/19 02:10:22;;;;;;;1.08;0.25;;;17.10;60.30;;;;;;4996106;28;20046;-13
2022/03/19 02:12:53;;;;;;;0.30;0.30;;;17.00;60.40;;;;;;4997562;28;20046;-12
2022/03/19 02:15:18;;;;;;;0.30;0.30;;;17.10;60.40;;;;;;4996361;28;20053;-14
2022/03/19 02:17:44;;;;;;;0.82;0.30;;;17.10;60.30;;;;;;4997115;28;20038;-14
2022/03/19 02:20:10;;;;;;;0.32;0.30;;;17.10;60.40;;;;;;4988490;28;20047;-14
2022/03/19 02:22:35;;;;;;;0.32;0.30;;;17.10;60.30;;;;;;4988181;28;20050;-13
2022/03/19 02:27:46;;;;;;;0.20;0.20;;;17.10;60.30;;;;;;4985649;28;20061;-12
2022/03/19 02:30:13;;;;;;;0.28;0.22;;;17.10;60.30;;;;;;4986062;28;20038;-14
2022/03/19 02:32:40;;;;;;;0.17;0.17;;;17.10;60.20;;;;;;4987522;28;20418;-13
2022/03/19 02:35:06;;;;;;;0.35;0.35;;;17.10;60.30;;;;;;4984957;28;20046;-13
2022/03/19 02:37:43;;;;;;;0.45;0.30;;;17.00;60.30;;;;;;4985797;28;20056;-13
2022/03/19 02:40:09;;;;;;;0.50;0.32;;;17.00;60.40;;;;;;4987814;28;20050;-13
2022/03/19 02:42:35;;;;;;;0.20;0.20;;;17.00;60.30;;;;;;4997539;28;20046;-14
2022/03/19 02:45:01;;;;;;;0.20;0.20;;;17.00;60.50;;;;;;4996936;28;20050;-14
2022/03/19 02:47:26;;;;;;;0.32;0.30;;;17.00;60.30;;;;;;4996906;28;20050;-12
2022/03/19 02:49:52;;;;;;;0.30;0.30;;;17.00;60.40;;;;;;4996903;28;20038;-13
2022/03/19 02:52:17;;;;;;;0.30;0.30;;;17.00;60.30;;;;;;4997404;28;20133;-13
2022/03/19 02:54:43;;;;;;;0.30;0.30;;;17.00;60.10;;;;;;4997201;28;20046;-13
2022/03/19 02:57:08;;;;;;;0.20;0.20;;;17.00;60.10;;;;;;4996753;28;20046;-13
2022/03/19 02:59:34;;;;;;;0.20;0.20;;;17.00;60.20;;;;;;4996916;28;20039;-13
2022/03/19 03:02:03;;;;;;;0.20;0.20;;;16.90;60.30;;;;;;4995758;28;20141;-12
2022/03/19 03:04:28;;;;;;;0.30;0.30;;;17.00;60.20;;;;;;4997045;28;20038;-13
2022/03/19 03:06:57;;;;;;;0.40;0.40;;;17.00;60.10;;;;;;4996508;28;20109;-13
2022/03/19 03:09:24;;;;;;;0.30;0.30;;;17.00;60.10;;;;;;4996349;28;20046;-12
2022/03/19 03:11:50;;;;;;;0.20;0.20;;;17.00;60.10;;;;;;4996254;28;20133;-12
2022/03/19 03:14:15;;;;;;;0.30;0.30;;;17.00;60.10;;;;;;4991467;28;20077;-12
2022/03/19 03:16:41;;;;;;;0.28;0.28;;;17.00;60.10;;;;;;4977479;28;20047;-14
2022/03/19 03:19:08;;;;;;;0.20;0.20;;;17.00;60.10;;;;;;4976272;28;20089;-13
2022/03/19 03:21:34;;;;;;;0.38;0.30;;;17.00;60.10;;;;;;4977496;28;20053;-12
2022/03/19 03:24:01;;;;;;;0.40;0.40;;;16.90;60.10;;;;;;4979835;28;20096;-13
2022/03/19 03:26:27;;;;;;;1.73;0.50;;;17.00;60.20;;;;;;4996695;28;20062;-13
2022/03/19 03:28:52;;;;;;;0.30;0.30;;;16.90;60.10;;;;;;4996272;28;20093;-12
2022/03/19 03:31:18;;;;;;;0.30;0.20;;;16.90;60.20;;;;;;4996448;28;20519;-12
2022/03/19 03:33:44;;;;;;;0.28;0.25;;;16.90;60.20;;;;;;4996004;28;20073;-13
2022/03/19 03:36:09;;;;;;;0.22;0.20;;;16.90;60.20;;;;;;4996011;28;20505;-12
2022/03/19 03:38:36;;;;;;;0.30;0.30;;;16.90;60.20;;;;;;4996327;28;20038;-12
2022/03/19 03:41:01;;;;;;;0.40;0.40;;;16.90;60.10;;;;;;4995980;28;20047;-11
2022/03/19 03:43:27;;;;;;;0.28;0.22;;;16.90;60.30;;;;;;4995805;28;20042;-13
2022/03/19 03:45:53;;;;;;;0.73;0.30;;;16.90;60.30;;;;;;4995303;28;20050;-14
2022/03/19 03:48:18;;;;;;;0.35;0.35;;;16.90;60.20;;;;;;4996330;28;20093;-13
2022/03/19 03:50:44;;;;;;;0.73;0.40;;;16.90;60.30;;;;;;4996363;28;20049;-12
2022/03/19 03:53:09;;;;;;;0.30;0.30;;;16.90;60.30;;;;;;4993652;28;20050;-12
2022/03/19 03:55:36;;;;;;;0.30;0.30;;;16.90;60.30;;;;;;4995965;28;20050;-13
2022/03/19 03:58:03;;;;;;;0.35;0.28;;;16.90;60.30;;;;;;4995739;28;20070;-12
2022/03/19 04:00:29;;;;;;;0.30;0.30;;;16.80;60.30;;;;;;4996283;28;20061;-13
2022/03/19 04:02:54;;;;;;;0.57;0.30;;;16.80;61.00;;;;;;4995304;28;20519;-13
2022/03/19 04:05:20;;;;;;;0.40;0.30;;;16.90;60.40;;;;;;4996055;28;20114;-14
2022/03/19 04:07:45;;;;;;;0.40;0.40;;;16.80;60.20;;;;;;4995453;28;20049;-12
2022/03/19 04:10:11;;;;;;;0.25;0.22;;;16.80;60.40;;;;;;4995457;28;20053;-13
2022/03/19 04:12:37;;;;;;;0.60;0.50;;;16.80;60.30;;;;;;4996261;28;20077;-12
2022/03/19 04:15:04;;;;;;;0.30;0.30;;;16.80;60.40;;;;;;4995603;28;20180;-12
2022/03/19 04:17:30;;;;;;;0.43;0.30;;;16.80;60.50;;;;;;4981154;28;20074;-13
2022/03/19 04:19:55;;;;;;;0.30;0.30;;;16.80;60.40;;;;;;4975904;28;20055;-12
2022/03/19 04:22:21;;;;;;;0.20;0.20;;;16.80;60.50;;;;;;4986730;28;20074;-13
2022/03/19 04:24:46;;;;;;;0.40;0.40;;;16.80;60.40;;;;;;4995719;28;20427;-12
2022/03/19 04:27:14;;;;;;;0.40;0.40;;;16.80;60.40;;;;;;4995239;28;20105;-12
2022/03/19 04:29:40;;;;;;;0.30;0.30;;;16.80;60.30;;;;;;4986557;28;20050;-13
2022/03/19 04:32:06;;;;;;;0.38;0.30;;;16.80;60.40;;;;;;4978272;28;20039;-12
2022/03/19 04:34:31;;;;;;;0.43;0.40;;;16.80;60.50;;;;;;4988623;28;20050;-13
2022/03/19 04:36:57;;;;;;;0.50;0.50;;;16.70;60.50;;;;;;4998615;28;20087;-13
2022/03/19 04:39:23;;;;;;;0.60;0.30;;;16.80;60.40;;;;;;4999811;28;20050;-13
2022/03/19 04:41:49;;;;;;;0.60;0.30;;;16.80;60.40;;;;;;4999904;28;20049;-12
2022/03/19 04:44:16;;;;;;;0.40;0.40;;;16.80;60.40;;;;;;4984721;28;20046;-13
2022/03/19 04:46:41;;;;;;;0.45;0.40;;;16.80;60.40;;;;;;4980323;28;20412;-13
2022/03/19 04:49:07;;;;;;;0.30;0.30;;;16.80;60.30;;;;;;4979590;28;20411;-14
2022/03/19 04:51:36;;;;;;;0.20;0.20;;;16.80;60.20;;;;;;4980683;28;20118;-13
2022/03/19 04:54:02;;;;;;;0.85;0.38;;;16.80;60.30;;;;;;4979779;28;20047;-13
2022/03/19 04:56:28;;;;;;;0.30;0.30;;;16.80;60.30;;;;;;4980107;28;20049;-12
2022/03/19 04:58:55;;;;;;;0.47;0.45;;;16.70;60.50;;;;;;4991957;28;20042;-13
2022/03/19 05:01:21;;;;;;;0.30;0.30;;;16.70;60.50;;;;;;4999561;28;20050;-13
2022/03/19 05:03:47;;;;;;;0.40;0.40;;;16.70;60.50;;;;;;4999439;28;20038;-13
2022/03/19 05:06:12;;;;;;;0.50;0.40;;;16.70;60.50;;;;;;4994837;28;20042;-13
2022/03/19 05:08:38;;;;;;;0.40;0.40;;;16.70;60.40;;;;;;4979511;28;20046;-12
2022/03/19 05:11:13;;;;;;;0.38;0.30;;;16.70;60.50;;;;;;4979284;28;20075;-12
2022/03/19 05:13:40;;;;;;;0.30;0.30;;;16.70;60.50;;;;;;4991710;28;20050;-12
2022/03/19 05:16:05;;;;;;;0.50;0.50;;;16.70;60.50;;;;;;4998612;28;20130;-12
2022/03/19 05:18:31;;;;;;;0.40;0.40;;;16.70;60.50;;;;;;4999017;28;20079;-12
2022/03/19 05:20:56;;;;;;;0.40;0.40;;;16.70;60.50;;;;;;4989875;28;20057;-13
2022/03/19 05:23:23;;;;;;;0.40;0.40;;;16.70;60.50;;;;;;4979388;28;20049;-13
2022/03/19 05:25:49;;;;;;;0.30;0.30;;;16.70;60.50;;;;;;4980021;28;20146;-13
2022/03/19 05:28:15;;;;;;;0.30;0.30;;;16.70;60.50;;;;;;4997170;28;20070;-15
2022/03/19 05:30:40;;;;;;;0.30;0.30;;;16.70;60.50;;;;;;4999010;28;20466;-13
2022/03/19 05:33:06;;;;;;;0.40;0.40;;;16.70;60.50;;;;;;4998309;28;20125;-12
2022/03/19 05:35:32;;;;;;;0.50;0.50;;;16.70;60.50;;;;;;4998735;28;20046;-12
2022/03/19 05:37:59;;;;;;;0.50;0.50;;;16.70;60.50;;;;;;4998198;28;20037;-13
2022/03/19 05:40:25;;;;;;;0.40;0.40;;;16.70;60.50;;;;;;4998654;28;20105;-13
2022/03/19 05:42:51;;;;;;;0.35;0.35;;;16.70;60.50;;;;;;4997573;28;20096;-12
2022/03/19 05:45:19;;;;;;;0.38;0.38;;;16.70;60.50;;;;;;4998026;28;20125;-12
2022/03/19 05:47:45;;;;;;;0.60;0.50;;;16.70;60.50;;;;;;4998708;28;20517;-13
2022/03/19 05:50:11;;;;;;;0.50;0.50;;;16.70;60.60;;;;;;4998068;28;20466;-12
2022/03/19 05:52:37;;;;;;;0.40;0.40;;;16.70;60.50;;;;;;4981542;28;20038;-12
2022/03/19 05:55:03;;;;;;;0.32;0.32;;;16.60;60.50;;;;;;4978253;28;20488;-12
2022/03/19 05:57:28;;;;;;;0.30;0.30;;;16.60;60.50;;;;;;4979087;28;20094;-13
2022/03/19 05:59:54;;;;;;;0.43;0.43;;;16.60;60.70;;;;;;4989438;28;20050;-13
2022/03/19 06:02:19;;;;;;;0.40;0.40;;;16.60;60.50;;;;;;4991507;28;20048;-13
2022/03/19 06:04:45;;;;;;;0.30;0.30;;;16.60;60.60;;;;;;4998228;28;20389;-12
2022/03/19 06:07:11;;;;;;;0.40;0.40;;;16.60;60.60;;;;;;4997687;28;20065;-12
2022/03/19 06:09:37;;;;;;;0.30;0.30;;;16.60;60.70;;;;;;4997524;28;20143;-13
2022/03/19 06:12:03;;;;;;;0.50;0.50;;;16.60;60.60;;;;;;4996695;28;20047;-13
2022/03/19 06:14:28;;;;;;;0.60;0.60;;;16.60;60.50;;;;;;4998075;28;20060;-12
2022/03/19 06:16:54;;;;;;;0.50;0.50;;;16.60;60.50;;;;;;4998122;28;20558;-12
2022/03/19 06:19:19;;;;;;;0.28;0.28;;;16.60;60.60;;;;;;4997192;28;20050;-13
2022/03/19 06:21:45;;;;;;;0.38;0.38;;;16.60;60.60;;;;;;4997288;28;20093;-13
2022/03/19 06:24:11;;;;;;;0.47;0.47;;;16.60;60.60;;;;;;4997181;28;20046;-13
2022/03/19 06:26:36;;;;;;;0.40;0.40;;;16.60;60.60;;;;;;4996106;28;20038;-13
2022/03/19 06:29:02;;;;;;;0.40;0.40;;;16.60;60.70;;;;;;4997247;28;20130;-13
2022/03/19 06:31:28;;;;;;;0.50;0.40;;;16.60;60.50;;;;;;4648672;28;9999805;-13
2022/03/19 06:33:54;;;;;;;0.40;0.40;;;16.60;60.70;;;;;;4991639;28;20042;-12
2022/03/19 06:39:04;;;;;;;;;;;16.60;60.50;;;;;;4993347;28;20053;-12
2022/03/19 06:41:29;;;;;;;0.60;0.60;;;16.60;60.70;;;;;;4998971;28;19918;-14
2022/03/19 06:43:55;;;;;;;0.47;0.47;;;16.60;60.90;;;;;;5000594;28;20426;-15
2022/03/19 06:46:21;;;;;;;0.32;0.32;;;16.60;60.70;;;;;;5011631;28;20042;-13
2022/03/19 06:48:46;;;;;;;0.40;0.40;;;16.60;61.70;;;;;;5000029;28;20518;-14
2022/03/19 06:51:12;;;;;;;1.38;0.70;;;16.60;60.80;;;;;;4994935;28;20049;-14
2022/03/19 06:53:38;;;;;;;1.95;0.40;;;16.60;61.10;;;;;;4998816;28;20053;-13
2022/03/19 06:56:07;;;;;;;0.63;0.63;;;16.50;61.00;;;;;;5012249;28;20045;-13
2022/03/19 06:58:33;;;;;;;0.70;0.65;;;16.50;61.10;;;;;;5013240;28;20099;-14
2022/03/19 07:01:00;;;;;;;0.50;0.50;;;16.60;61.00;;;;;;4995004;28;20042;-13
2022/03/19 07:03:25;;;;;;;0.50;0.50;;;16.50;61.10;;;;;;4992931;28;20054;-13
2022/03/19 07:05:51;;;;;;;0.43;0.40;;;16.50;61.00;;;;;;4998520;28;20041;-14
2022/03/19 07:08:16;;;;;;;0.40;0.40;;;16.50;61.20;;;;;;5000052;28;20048;-13
2022/03/19 07:10:42;;;;;;;0.40;0.40;;;16.50;61.10;;;;;;5006460;28;20038;-13
2022/03/19 07:13:07;;;;;;;0.65;0.60;;;16.50;60.90;;;;;;4991068;28;20129;-13
2022/03/19 07:15:33;;;;;;;0.65;0.65;;;16.50;60.90;;;;;;4987220;28;20454;-14
2022/03/19 07:18:02;;;;;;;0.57;0.57;;;16.50;61.20;;;;;;4996160;28;20053;-13
2022/03/19 07:20:29;;;;;;;0.60;0.60;;;16.40;60.70;;;;;;4994465;28;20537;-14
2022/03/19 07:23:03;;;;;;;0.50;0.50;;;16.50;61.00;;;;;;4994908;28;20054;-14
2022/03/19 07:25:35;;;;;;;0.55;0.50;;;16.50;61.30;;;;;;4994105;28;20141;-14
2022/03/19 07:28:11;;;;;;;1.08;0.60;;;16.50;61.30;;;;;;4995642;28;20054;-13
2022/03/19 07:30:36;;;;;;;0.70;0.70;;;16.50;61.20;;;;;;4985357;28;20058;-16
2022/03/19 07:33:02;;;;;;;0.57;0.57;;;16.40;61.10;;;;;;4978868;28;20081;-16
2022/03/19 07:35:28;;;;;;;0.50;0.50;;;16.50;61.30;;;;;;4982976;28;20054;-16
2022/03/19 07:37:54;;;;;;;1.08;0.65;;;16.50;61.40;;;;;;4982499;28;20054;-15
2022/03/19 07:43:08;;;;;;;0.82;0.82;;;16.50;61.20;;;;;;4978242;28;20117;-16
2022/03/19 07:45:34;;;;;;;0.70;0.70;;;16.50;61.20;;;;;;4981221;28;20046;-16
2022/03/19 07:48:00;;;;;;;0.90;0.90;;;16.50;61.10;;;;;;4980457;28;20464;-16
2022/03/19 07:50:26;;;;;;;1.00;0.60;;;16.50;61.30;;;;;;4981028;28;20104;-15
2022/03/19 07:52:51;;;;;;;0.80;0.80;;;16.60;61.20;;;;;;4978223;28;20056;-16
2022/03/19 07:55:18;;;;;;;0.60;0.60;;;16.60;60.90;;;;;;4981097;28;20039;-16
2022/03/19 07:57:43;;;;;;;0.70;0.70;;;16.70;61.20;;;;;;4979377;28;20101;-16
2022/03/19 08:00:09;;;;;;;1.70;0.60;;;16.70;61.20;;;;;;4981606;28;20050;-15
2022/03/19 08:02:35;;;;;;;0.90;0.82;;;16.70;60.70;;;;;;4982137;28;20580;-15
2022/03/19 08:05:03;;;;;;;0.85;0.85;;;16.70;61.00;;;;;;4980802;28;20061;-16
2022/03/19 08:07:29;;;;;;;1.77;1.13;;;16.70;61.00;;;;;;4980743;28;20550;-16
2022/03/19 08:09:55;;;;;;;0.68;0.68;;;16.70;60.60;;;;;;4979169;28;20077;-16
2022/03/19 08:12:20;;;;;;;0.65;0.65;;;16.70;60.80;;;;;;4981328;28;20046;-16
2022/03/19 08:14:46;;;;;;;0.80;0.80;;;16.70;61.10;;;;;;4979955;28;20053;-14
2022/03/19 08:17:12;;;;;;;0.60;0.60;;;16.80;60.90;;;;;;4981304;28;20419;-14
2022/03/19 08:19:38;;;;;;;0.70;0.70;;;16.80;60.70;;;;;;4981208;28;20058;-13
2022/03/19 08:22:03;;;;;;;1.27;0.85;;;16.80;60.80;;;;;;4979280;28;20647;-16
2022/03/19 08:24:29;;;;;;;1.85;0.90;;;16.80;60.60;;;;;;4976490;28;20058;-14
2022/03/19 08:26:55;;;;;;;0.70;0.70;;;16.80;60.60;;;;;;4981040;28;20046;-13
2022/03/19 08:29:23;;;;;;;0.80;0.80;;;16.90;60.60;;;;;;4980267;28;20108;-15
2022/03/19 08:31:50;;;;;;;1.02;1.02;;;16.90;60.40;;;;;;4979944;28;20080;-14
2022/03/19 08:34:16;;;;;;;0.70;0.70;;;16.90;60.40;;;;;;4978424;28;20058;-13
2022/03/19 08:36:42;;;;;;;0.77;0.77;;;16.90;60.40;;;;;;4978310;28;20046;-13
2022/03/19 08:41:52;;;;;;;0.90;0.90;;;16.90;60.40;;;;;;4982424;28;20056;-14
2022/03/19 08:44:17;;;;;;;1.10;1.10;;;16.90;60.30;;;;;;4978022;28;20042;-15
2022/03/19 08:46:43;;;;;;;0.90;0.90;;;16.90;60.20;;;;;;4980369;28;20054;-14
2022/03/19 08:49:08;;;;;;;2.63;0.88;;;16.90;60.40;;;;;;4977860;28;20492;-14
2022/03/19 08:51:40;;;;;;;0.70;0.70;;;17.00;60.30;;;;;;4980449;28;20623;-15
2022/03/19 08:54:06;;;;;;;0.90;0.90;;;17.00;60.20;;;;;;4978125;28;20054;-15
2022/03/19 08:56:32;;;;;;;0.90;0.90;;;16.90;60.30;;;;;;4979992;28;20054;-14
2022/03/19 08:58:58;;;;;;;0.90;0.90;;;16.90;60.30;;;;;;4981563;28;20049;-13
2022/03/19 09:01:24;;;;;;;1.33;1.30;;;17.00;60.20;;;;;;4980281;28;20065;-14
2022/03/19 09:03:50;;;;;;;0.93;0.93;;;17.00;60.10;;;;;;4978802;28;20050;-14
2022/03/19 09:06:17;;;;;;;1.15;1.10;;;17.00;60.10;;;;;;4980391;28;20590;-13
2022/03/19 09:08:42;;;;;;;1.00;1.00;;;17.00;60.10;;;;;;4981289;28;20109;-13
2022/03/19 09:11:08;;;;;;;0.98;0.98;;;17.00;59.80;;;;;;4979128;28;20093;-16
2022/03/19 09:13:34;;;;;;;0.80;0.80;;;17.00;60.10;;;;;;4979970;28;20100;-14
2022/03/19 09:15:59;;;;;;;1.23;1.17;;;17.00;60.10;;;;;;4980077;28;20045;-15
2022/03/19 09:18:26;;;;;;;1.40;1.30;;;17.00;59.70;;;;;;4981781;28;20049;-14
2022/03/19 09:20:52;;;;;;;1.33;1.33;;;16.90;59.90;;;;;;4984125;28;20100;-14
2022/03/19 09:23:17;;;;;;;1.60;1.50;;;16.90;59.80;;;;;;4982033;28;20054;-14
2022/03/19 09:25:43;;;;;;;1.23;1.20;;;16.90;59.70;;;;;;4982817;28;20863;-15
2022/03/19 09:28:09;;;;;;;1.35;1.30;;;16.90;59.90;;;;;;4984232;28;20046;-15
2022/03/19 09:30:34;;;;;;;1.02;1.02;;;16.90;59.80;;;;;;4983997;28;20046;-14
2022/03/19 09:33:00;;;;;;;1.33;1.23;;;16.90;60.60;;;;;;4983605;28;20041;-14
2022/03/19 09:35:26;;;;;;;1.20;1.20;;;16.90;59.70;;;;;;4984522;28;20046;-14
2022/03/19 09:37:52;;;;;;;1.20;1.20;;;16.90;59.80;;;;;;4984562;28;20057;-15
2022/03/19 09:40:18;;;;;;;1.23;1.13;;;16.90;59.80;;;;;;4983506;28;20133;-14
2022/03/19 09:42:48;;;;;;;1.52;1.42;;;17.00;59.70;;;;;;4984873;28;20110;-14
2022/03/19 09:45:14;;;;;;;1.52;1.42;;;17.00;59.70;;;;;;4983046;28;20116;-14
2022/03/19 09:47:40;;;;;;;1.70;1.60;;;17.00;59.60;;;;;;4984355;28;20050;-14
2022/03/19 09:50:06;;;;;;;1.52;1.42;;;17.00;59.60;;;;;;4984901;28;20064;-15
2022/03/19 09:52:33;;;;;;;1.70;1.60;;;17.10;59.60;;;;;;4984159;28;20704;-14
2022/03/19 09:55:02;;;;;;;1.70;1.60;;;17.00;59.40;;;;;;4981186;28;20058;-14
2022/03/19 09:57:27;;;;;;;1.98;1.63;;;17.10;59.40;;;;;;4983930;28;20180;-14
2022/03/19 09:59:53;;;;;;;1.10;1.10;;;17.20;59.30;;;;;;4985463;28;20141;-15
2022/03/19 10:02:19;;;;;;;1.67;1.58;;;17.20;59.20;;;;;;4982314;28;20054;-14
2022/03/19 10:04:44;;;;;;;1.80;1.70;;;17.20;59.10;;;;;;4982370;28;20065;-14
2022/03/19 10:09:56;;;;;;;1.95;1.42;;;17.20;59.20;;;;;;4983727;28;20105;-15
2022/03/19 10:12:27;;;;;;;1.50;1.40;;;17.20;59.10;;;;;;4982185;28;20048;-15
2022/03/19 10:14:54;;;;;;;1.17;1.17;;;17.30;59.10;;;;;;4981967;28;20145;-14
2022/03/19 10:17:27;;;;;;;1.20;1.20;;;17.30;59.10;;;;;;4984359;28;20145;-14
2022/03/19 10:19:54;;;;;;;1.25;1.20;;;17.30;59.20;;;;;;4983097;28;20062;-15
2022/03/19 10:22:26;;;;;;;1.35;1.25;;;17.30;59.10;;;;;;4983361;28;20057;-15
2022/03/19 10:25:00;;;;;;;1.42;1.33;;;17.30;59.10;;;;;;4981938;28;20062;-14
2022/03/19 10:27:25;;;;;;;1.48;1.38;;;17.40;59.10;;;;;;4982944;28;20101;-14
2022/03/19 10:30:08;;;;;;;1.70;1.60;;;17.40;59.00;;;;;;4982915;28;20042;-13
2022/03/19 10:32:35;;;;;;;1.83;1.73;;;17.40;59.10;;;;;;4981466;28;20438;-14
2022/03/19 10:35:01;;;;;;;1.80;1.70;;;17.40;59.00;;;;;;4983180;28;20137;-13
2022/03/19 10:37:35;;;;;;;1.52;1.50;;;17.40;59.10;;;;;;4983700;28;20050;-14
2022/03/19 10:40:01;;;;;;;1.90;1.80;;;17.50;59.10;;;;;;4983827;28;20054;-13
2022/03/19 10:42:27;;;;;;;2.75;1.50;;;17.50;59.00;;;;;;4983248;28;20051;-15
2022/03/19 10:44:52;;;;;;;1.80;1.70;;;17.60;59.00;;;;;;4981208;28;20858;-14
2022/03/19 10:47:21;;;;;;;1.70;1.58;;;17.50;59.10;;;;;;4981807;28;20146;-14
2022/03/19 10:49:47;;;;;;;1.65;1.55;;;17.60;59.10;;;;;;4983130;28;20132;-15
2022/03/19 10:52:15;;;;;;;1.90;1.80;;;17.60;59.00;;;;;;4981665;28;20058;-14
2022/03/19 10:54:40;;;;;;;1.70;1.60;;;17.70;58.90;;;;;;4978523;28;20161;-14
2022/03/19 10:57:06;;;;;;;2.00;1.90;;;17.60;58.90;;;;;;4980235;28;20182;-14
2022/03/19 10:59:32;;;;;;;1.60;1.50;;;17.60;58.90;;;;;;4981268;28;20408;-14
2022/03/19 11:01:57;;;;;;;2.55;1.70;;;17.60;59.60;;;;;;4981533;28;20061;-14
2022/03/19 11:04:23;;;;;;;2.47;1.70;;;17.60;58.90;;;;;;4977033;28;20043;-14
2022/03/19 11:06:50;;;;;;;1.83;1.73;;;17.60;58.90;;;;;;4980012;28;20141;-14
2022/03/19 11:09:17;;;;;;;1.92;1.83;;;17.70;59.00;;;;;;4980774;28;20050;-14
2022/03/19 11:11:51;;;;;;;2.40;1.80;;;17.70;58.90;;;;;;4979943;28;20129;-14
2022/03/19 11:14:24;;;;;;;2.00;1.90;;;17.70;58.80;;;;;;4976890;28;20121;-15
2022/03/19 11:19:45;;;;;;;1.73;1.63;;;17.80;58.80;;;;;;4981093;28;20428;-13
2022/03/19 11:22:11;;;;;;;1.98;1.88;;;17.70;58.80;;;;;;4980670;28;20506;-13
2022/03/19 11:24:59;;;;;;;2.13;2.03;;;17.80;58.80;;;;;;4976760;28;20065;-14
2022/03/19 11:27:27;;;;;;;2.17;1.83;;;17.80;58.60;;;;;;4976389;28;20116;-13
2022/03/19 11:29:53;;;;;;;2.05;1.92;;;17.80;58.70;;;;;;4979269;28;20046;-15
2022/03/19 11:32:22;;;;;;;2.05;1.95;;;17.80;58.60;;;;;;4980357;28;20050;-14
2022/03/19 11:34:48;;;;;;;1.85;1.75;;;17.80;58.60;;;;;;4978609;28;20054;-14
2022/03/19 11:37:14;;;;;;;2.13;2.03;;;17.80;58.50;;;;;;4980831;28;20636;-21
2022/03/19 11:40:00;;;;;;;2.25;2.15;;;17.80;58.40;;;;;;4980558;28;20428;-15
2022/03/19 11:42:32;;;;;;;1.95;1.85;;;17.90;58.40;;;;;;4979509;28;20058;-15
2022/03/19 11:45:09;;;;;;;1.80;1.70;;;17.90;58.40;;;;;;4979891;28;20050;-14
2022/03/19 11:47:34;;;;;;;1.65;1.60;;;17.90;58.40;;;;;;4979881;28;20050;-15
2022/03/19 11:50:02;;;;;;;1.67;1.58;;;18.00;58.40;;;;;;4982360;28;20053;-14
2022/03/19 11:52:30;;;;;;;2.00;1.90;;;17.90;58.20;;;;;;4979968;28;20054;-14
2022/03/19 11:55:06;;;;;;;2.35;2.25;;;17.90;58.30;;;;;;4980860;28;20169;-13
2022/03/19 11:57:55;;;;;;;2.20;2.10;;;18.00;58.30;;;;;;4980947;28;20056;-14
2022/03/19 12:00:24;;;;;;;2.33;2.22;;;18.00;58.30;;;;;;4981670;28;20100;-14
2022/03/19 12:03:10;;;;;;;2.00;1.90;;;18.00;58.10;;;;;;4979542;28;20062;-15
2022/03/19 12:05:47;;;;;;;2.22;2.13;;;18.00;58.10;;;;;;4980049;28;20112;-16
2022/03/19 12:08:19;;;;;;;2.17;2.08;;;17.90;58.20;;;;;;4981622;28;20574;-15
2022/03/19 12:10:58;;;;;;;2.20;2.10;;;18.00;58.30;;;;;;4981194;28;20085;-14
2022/03/19 12:13:26;;;;;;;2.30;2.20;;;17.90;58.30;;;;;;4978736;28;20109;-15
2022/03/19 12:15:53;;;;;;;2.50;2.30;;;17.90;58.20;;;;;;4982024;28;20081;-14
2022/03/19 12:18:33;;;;;;;2.55;2.20;;;17.90;58.10;;;;;;4981478;28;20065;-18
2022/03/19 12:21:03;;;;;;;2.35;2.20;;;17.90;58.50;;;;;;4981304;28;20057;-15
2022/03/19 12:23:39;;;;;;;2.15;2.05;;;17.80;58.50;;;;;;4633507;28;10000669;-14
2022/03/19 12:26:05;;;;;;;1.80;1.70;;;17.90;58.70;;;;;;4980755;28;20574;-15
2022/03/19 12:28:31;;;;;;;2.20;2.10;;;17.90;58.50;;;;;;4984747;28;20388;-14
2022/03/19 12:31:08;;;;;;;2.00;1.90;;;17.90;58.60;;;;;;4991306;28;20138;-14
2022/03/19 12:33:34;;;;;;;2.22;2.13;;;17.90;59.00;;;;;;4990936;28;20046;-14
2022/03/19 12:36:20;;;;;;;2.13;2.03;;;17.80;58.60;;;;;;4992072;28;20124;-14
2022/03/19 12:38:48;;;;;;;2.00;1.90;;;17.80;58.40;;;;;;4986163;28;20046;-14
2022/03/19 12:41:23;;;;;;;2.17;2.08;;;17.90;58.60;;;;;;4994208;28;20096;-14
2022/03/19 12:43:49;;;;;;;3.30;1.90;;;17.90;58.40;;;;;;4979456;28;20074;-14
2022/03/19 12:46:26;;;;;;;2.03;1.92;;;18.00;58.60;;;;;;4991472;28;20051;-14
2022/03/19 12:48:52;;;;;;;2.25;2.15;;;18.00;58.50;;;;;;4991521;28;20562;-14
2022/03/19 12:51:24;;;;;;;2.40;2.20;;;17.90;58.40;;;;;;4982088;28;20089;-15
2022/03/19 12:53:50;;;;;;;2.28;2.15;;;18.00;58.40;;;;;;5013931;28;20100;-14
2022/03/19 12:56:24;;;;;;;2.00;1.90;;;18.00;58.40;;;;;;4996960;28;20054;-14
2022/03/19 12:58:51;;;;;;;2.33;2.23;;;18.00;58.40;;;;;;4994780;28;20515;-13
2022/03/19 13:01:21;;;;;;;1.90;1.80;;;17.90;58.40;;;;;;4995578;28;20285;-14
2022/03/19 13:03:49;;;;;;;2.00;1.90;;;17.90;58.50;;;;;;4994004;28;20046;-15